Time;durP1;ratioP1;P1;durP2;ratioP2;P2;SDS_P1;SDS_P2;PMS_P1;PMS_P2;Temp;Humidity;BMP_temperature;BMP_pressure;BME280_temperature;BME280_humidity;BME280_pressure;Samples;Min_cycle;Max_cycle;Signal;HPM_P1;HPM_P2
2022/08/28 00:00:39;;;;;;;11.73;4.43;;;12.40;99.90;;;;;;5044309;28;20041;-65
2022/08/28 00:03:05;;;;;;;14.00;5.25;;;12.30;99.90;;;;;;5046310;28;20486;-66
2022/08/28 00:05:31;;;;;;;9.75;4.53;;;12.30;99.90;;;;;;5049829;28;20037;-66
2022/08/28 00:07:58;;;;;;;16.30;5.45;;;12.20;99.90;;;;;;5045057;28;20166;-66
2022/08/28 00:10:25;;;;;;;14.45;4.65;;;12.30;99.90;;;;;;5048138;28;20033;-66
2022/08/28 00:12:54;;;;;;;15.95;4.53;;;12.20;99.90;;;;;;5046661;28;20511;-66
2022/08/28 00:15:24;;;;;;;13.93;4.82;;;12.30;99.90;;;;;;5043466;28;20056;-66
2022/08/28 00:17:49;;;;;;;9.10;4.75;;;12.20;99.90;;;;;;5046319;28;20045;-66
2022/08/28 00:20:17;;;;;;;11.93;5.00;;;12.20;99.90;;;;;;5043022;28;20437;-67
2022/08/28 00:22:43;;;;;;;15.73;4.88;;;12.20;99.90;;;;;;5046884;28;20041;-67
2022/08/28 00:25:11;;;;;;;12.43;4.63;;;12.20;99.90;;;;;;5044011;28;20365;-67
2022/08/28 00:27:52;;;;;;;12.20;5.07;;;12.10;99.90;;;;;;5045298;28;20067;-66
2022/08/28 00:30:34;;;;;;;13.10;4.75;;;12.20;99.90;;;;;;5047200;28;20029;-67
2022/08/28 00:33:28;;;;;;;10.40;4.70;;;12.10;99.90;;;;;;5046205;28;20439;-67
2022/08/28 00:35:55;;;;;;;9.45;4.78;;;12.00;99.90;;;;;;5040197;28;20054;-66
2022/08/28 00:38:22;;;;;;;10.90;5.57;;;12.10;99.90;;;;;;5043173;28;20175;-67
2022/08/28 00:40:50;;;;;;;12.20;5.43;;;12.00;99.90;;;;;;5047334;28;20044;-66
2022/08/28 00:43:40;;;;;;;12.23;5.35;;;11.90;99.90;;;;;;5060252;28;20037;-66
2022/08/28 00:46:19;;;;;;;12.18;4.63;;;11.90;99.90;;;;;;5042752;28;20033;-66
2022/08/28 00:48:45;;;;;;;11.60;4.93;;;11.80;99.90;;;;;;5046442;28;20051;-67
2022/08/28 00:53:58;;;;;;;12.77;5.00;;;11.90;99.90;;;;;;5038680;28;20102;-66
2022/08/28 00:56:25;;;;;;;12.93;5.78;;;11.80;99.90;;;;;;5064209;28;20512;-67
2022/08/28 00:58:53;;;;;;;15.18;5.18;;;11.90;99.90;;;;;;5043793;28;20043;-66
2022/08/28 01:01:19;;;;;;;9.93;5.18;;;11.90;99.90;;;;;;5042234;28;20064;-66
2022/08/28 01:03:44;;;;;;;10.75;5.43;;;12.00;99.90;;;;;;5044483;28;20041;-66
2022/08/28 01:06:13;;;;;;;15.48;5.13;;;12.00;99.90;;;;;;5045111;28;20480;-66
2022/08/28 01:08:43;;;;;;;14.65;4.95;;;11.90;99.90;;;;;;5044568;28;20044;-66
2022/08/28 01:11:11;;;;;;;10.80;5.20;;;11.90;99.90;;;;;;5043353;28;20041;-66
2022/08/28 01:13:40;;;;;;;11.90;5.53;;;11.90;99.90;;;;;;5040375;28;20046;-66
2022/08/28 01:16:07;;;;;;;11.73;5.35;;;11.80;99.90;;;;;;5045094;28;20090;-66
2022/08/28 01:18:33;;;;;;;13.75;5.07;;;11.80;99.90;;;;;;5041619;28;20187;-66
2022/08/28 01:21:17;;;;;;;11.32;4.82;;;12.00;99.90;;;;;;5042527;28;20415;-66
2022/08/28 01:24:08;;;;;;;12.60;4.47;;;11.90;99.90;;;;;;5045654;28;20255;-66
2022/08/28 01:26:34;;;;;;;13.25;4.95;;;11.90;99.90;;;;;;5043715;28;20110;-66
2022/08/28 01:29:00;;;;;;;14.57;5.00;;;11.90;99.90;;;;;;5044137;28;20778;-66
2022/08/28 01:31:29;;;;;;;7.90;4.78;;;11.90;99.90;;;;;;5046109;28;20040;-66
2022/08/28 01:33:58;;;;;;;11.48;5.13;;;11.80;99.90;;;;;;5044868;28;20041;-66
2022/08/28 01:36:24;;;;;;;14.65;5.18;;;11.90;99.90;;;;;;5031725;28;20064;-66
2022/08/28 01:38:55;;;;;;;11.48;5.13;;;11.80;99.90;;;;;;5061086;28;20044;-66
2022/08/28 01:41:21;;;;;;;14.18;5.60;;;11.70;99.90;;;;;;5027802;28;20068;-66
2022/08/28 01:43:47;;;;;;;15.38;5.38;;;11.80;99.90;;;;;;5046150;28;20080;-66
2022/08/28 01:46:13;;;;;;;10.98;5.22;;;11.70;99.90;;;;;;5044191;28;20091;-66
2022/08/28 01:48:41;;;;;;;12.55;5.53;;;11.80;99.90;;;;;;5045594;28;20040;-66
2022/08/28 01:51:07;;;;;;;12.50;5.07;;;11.70;99.90;;;;;;5041931;28;20052;-66
2022/08/28 01:53:33;;;;;;;14.00;5.75;;;11.70;99.90;;;;;;5042853;28;20447;-66
2022/08/28 01:56:01;;;;;;;14.40;5.22;;;11.70;99.90;;;;;;5043688;28;20037;-66
2022/08/28 01:58:27;;;;;;;13.65;5.30;;;11.70;99.90;;;;;;5060711;28;20029;-65
2022/08/28 02:00:53;;;;;;;14.48;5.50;;;11.70;99.90;;;;;;5039889;28;20041;-65
2022/08/28 02:03:19;;;;;;;13.65;5.50;;;11.80;99.90;;;;;;5045797;28;20079;-65
2022/08/28 02:05:45;;;;;;;13.88;5.35;;;11.70;99.90;;;;;;5043932;28;20084;-65
2022/08/28 02:08:12;;;;;;;12.60;5.63;;;11.70;99.90;;;;;;5045610;28;20064;-65
2022/08/28 02:10:39;;;;;;;13.48;4.93;;;11.70;99.90;;;;;;5048052;28;20041;-65
2022/08/28 02:13:05;;;;;;;13.30;5.63;;;11.70;99.90;;;;;;5049622;28;20055;-65
2022/08/28 02:15:33;;;;;;;12.30;5.60;;;11.70;99.90;;;;;;5048600;28;20045;-66
2022/08/28 02:17:59;;;;;;;11.73;5.38;;;11.60;99.90;;;;;;5046614;28;20396;-65
2022/08/28 02:20:27;;;;;;;11.98;5.28;;;11.70;99.90;;;;;;5045934;28;20043;-65
2022/08/28 02:22:54;;;;;;;13.07;5.63;;;11.60;99.90;;;;;;5039630;28;20049;-66
2022/08/28 02:25:21;;;;;;;12.85;5.15;;;11.70;99.90;;;;;;5043204;28;20404;-65
2022/08/28 02:27:46;;;;;;;13.25;5.30;;;11.70;99.90;;;;;;5042133;28;20091;-66
2022/08/28 02:30:14;;;;;;;12.80;5.90;;;11.70;99.90;;;;;;5044748;28;20040;-65
2022/08/28 02:32:40;;;;;;;13.15;6.10;;;11.60;99.90;;;;;;5042400;28;20041;-65
2022/08/28 02:35:07;;;;;;;11.00;5.55;;;11.70;99.90;;;;;;5044182;28;20095;-65
2022/08/28 02:37:33;;;;;;;14.63;5.78;;;11.70;99.90;;;;;;5047502;28;20040;-65
2022/08/28 02:39:58;;;;;;;16.27;5.57;;;11.60;99.90;;;;;;5040963;28;20041;-65
2022/08/28 02:42:25;;;;;;;17.25;6.45;;;11.50;99.90;;;;;;5040636;28;20395;-65
2022/08/28 02:44:51;;;;;;;13.25;6.20;;;11.50;99.90;;;;;;5041945;28;20044;-65
2022/08/28 02:47:17;;;;;;;14.18;5.95;;;11.50;99.90;;;;;;5041626;28;20051;-66
2022/08/28 02:49:43;;;;;;;18.08;5.80;;;11.50;99.90;;;;;;5042153;28;20175;-66
2022/08/28 02:52:10;;;;;;;12.02;5.57;;;11.50;99.90;;;;;;5041688;28;20116;-66
2022/08/28 02:54:38;;;;;;;11.05;5.00;;;11.50;99.90;;;;;;5044027;28;20114;-66
2022/08/28 02:57:06;;;;;;;6.22;2.75;;;11.50;99.90;;;;;;5041419;28;20047;-66
2022/08/28 02:59:33;;;;;;;2.00;1.33;;;11.50;99.90;;;;;;5044427;28;20041;-67
2022/08/28 03:02:02;;;;;;;1.50;1.20;;;11.40;99.90;;;;;;5044366;28;20033;-67
2022/08/28 03:04:30;;;;;;;1.80;1.02;;;11.30;99.90;;;;;;5042451;28;20445;-67
2022/08/28 03:06:56;;;;;;;2.08;1.42;;;11.10;99.90;;;;;;5042603;28;20050;-67
2022/08/28 03:09:22;;;;;;;3.25;1.80;;;11.10;99.90;;;;;;5043433;28;20503;-67
2022/08/28 03:11:47;;;;;;;5.13;2.97;;;10.90;99.90;;;;;;5043932;28;20108;-67
2022/08/28 03:14:13;;;;;;;5.55;2.70;;;10.80;99.90;;;;;;5042641;28;20041;-67
2022/08/28 03:16:39;;;;;;;8.98;3.67;;;10.70;99.90;;;;;;5043760;28;20290;-67
2022/08/28 03:19:04;;;;;;;4.88;3.20;;;10.60;99.90;;;;;;5039385;28;20041;-67
2022/08/28 03:21:30;;;;;;;6.82;2.95;;;10.60;99.90;;;;;;5042386;28;20064;-66
2022/08/28 03:23:56;;;;;;;11.60;4.90;;;10.50;99.90;;;;;;5037659;28;20491;-66
2022/08/28 03:26:22;;;;;;;12.73;5.40;;;10.60;99.90;;;;;;5043002;28;20372;-66
2022/08/28 03:28:52;;;;;;;11.82;4.72;;;10.50;99.90;;;;;;5054286;28;20037;-66
2022/08/28 03:31:22;;;;;;;17.42;5.93;;;10.60;99.90;;;;;;5041640;28;20538;-66
2022/08/28 03:33:49;;;;;;;15.70;6.53;;;10.60;99.90;;;;;;5042694;28;20415;-66
2022/08/28 03:36:20;;;;;;;13.85;6.35;;;10.70;99.90;;;;;;5043454;28;20032;-66
2022/08/28 03:38:46;;;;;;;10.45;5.50;;;10.70;99.90;;;;;;5058343;28;20044;-66
2022/08/28 03:41:17;;;;;;;15.88;5.55;;;10.80;99.90;;;;;;5040131;28;20041;-66
2022/08/28 03:43:43;;;;;;;7.28;4.10;;;10.80;99.90;;;;;;5043405;28;20041;-66
2022/08/28 03:46:14;;;;;;;8.05;3.35;;;10.80;99.90;;;;;;5041598;28;20072;-66
2022/08/28 03:48:40;;;;;;;5.82;1.83;;;10.80;99.90;;;;;;5054894;28;20076;-66
2022/08/28 03:51:09;;;;;;;11.20;4.13;;;10.80;99.90;;;;;;5042202;28;20068;-66
2022/08/28 03:53:36;;;;;;;11.30;4.18;;;10.70;99.90;;;;;;5034978;28;20045;-66
2022/08/28 03:56:14;;;;;;;6.97;3.05;;;10.60;99.90;;;;;;5044655;28;20123;-67
2022/08/28 03:58:41;;;;;;;2.97;1.40;;;10.60;99.90;;;;;;5043674;28;20099;-67
2022/08/28 04:01:07;;;;;;;2.22;1.25;;;10.50;99.90;;;;;;5038967;28;20114;-67
2022/08/28 04:03:33;;;;;;;2.88;1.10;;;10.40;99.90;;;;;;5042934;28;20044;-67
2022/08/28 04:05:59;;;;;;;2.72;1.50;;;10.20;99.90;;;;;;5044206;28;20349;-67
2022/08/28 04:08:25;;;;;;;5.13;2.15;;;10.30;99.90;;;;;;5039761;28;20040;-66
2022/08/28 04:10:51;;;;;;;13.43;5.07;;;10.20;99.90;;;;;;5042983;28;20285;-67
2022/08/28 04:13:18;;;;;;;9.80;5.03;;;10.30;99.90;;;;;;5040265;28;20186;-66
2022/08/28 04:15:44;;;;;;;3.80;2.22;;;10.20;99.90;;;;;;5041805;28;20043;-67
2022/08/28 04:18:10;;;;;;;2.50;1.20;;;10.30;99.90;;;;;;5040989;28;20037;-67
2022/08/28 04:20:37;;;;;;;4.38;1.95;;;10.40;99.90;;;;;;5042714;28;20396;-67
2022/08/28 04:23:03;;;;;;;3.03;1.65;;;10.30;99.90;;;;;;5041677;28;20429;-66
2022/08/28 04:25:30;;;;;;;4.15;2.00;;;10.20;99.90;;;;;;5043454;28;20089;-67
2022/08/28 04:27:56;;;;;;;5.00;1.80;;;10.20;99.90;;;;;;5041939;28;20033;-66
2022/08/28 04:30:22;;;;;;;5.20;1.40;;;10.20;99.90;;;;;;5038115;28;20040;-67
2022/08/28 04:32:47;;;;;;;3.53;1.33;;;10.30;99.90;;;;;;5034860;28;20484;-66
2022/08/28 04:35:13;;;;;;;2.80;1.20;;;10.30;99.90;;;;;;5056951;28;20045;-67
2022/08/28 04:37:39;;;;;;;3.72;1.13;;;10.10;99.90;;;;;;5042648;28;20049;-67
2022/08/28 04:40:09;;;;;;;4.05;1.00;;;10.20;99.90;;;;;;5040929;28;20044;-67
2022/08/28 04:42:36;;;;;;;0.93;0.75;;;10.10;99.90;;;;;;5040331;28;20072;-67
2022/08/28 04:45:02;;;;;;;1.25;0.60;;;10.20;99.90;;;;;;5042427;28;20080;-67
2022/08/28 04:47:29;;;;;;;2.50;1.10;;;10.10;99.90;;;;;;5045227;28;20479;-66
2022/08/28 04:49:54;;;;;;;0.50;0.43;;;10.00;99.90;;;;;;5042808;28;20045;-67
2022/08/28 04:52:21;;;;;;;1.63;0.60;;;9.90;99.90;;;;;;5061314;28;20040;-66
2022/08/28 04:54:48;;;;;;;6.18;1.23;;;9.90;99.90;;;;;;5045729;28;20053;-66
2022/08/28 04:57:14;;;;;;;6.35;1.67;;;9.90;99.90;;;;;;5047116;28;20047;-66
2022/08/28 04:59:40;;;;;;;5.15;2.28;;;9.90;99.90;;;;;;5045504;28;20033;-66
2022/08/28 05:02:06;;;;;;;9.70;3.50;;;9.80;99.90;;;;;;5043874;28;20029;-66
2022/08/28 05:04:32;;;;;;;10.52;3.78;;;10.00;99.90;;;;;;5044202;28;20041;-66
2022/08/28 05:06:57;;;;;;;11.82;4.80;;;10.00;99.90;;;;;;5046989;28;20124;-66
2022/08/28 05:09:23;;;;;;;17.55;5.35;;;10.20;99.90;;;;;;5046234;28;20561;-66
2022/08/28 05:11:49;;;;;;;15.75;6.30;;;10.30;99.90;;;;;;5045045;28;20043;-66
2022/08/28 05:14:15;;;;;;;12.45;5.53;;;10.40;99.90;;;;;;5046568;28;20086;-66
2022/08/28 05:16:44;;;;;;;18.90;6.20;;;10.50;99.90;;;;;;5043065;28;20037;-66
2022/08/28 05:19:09;;;;;;;14.57;5.57;;;10.50;99.90;;;;;;5042884;28;20086;-66
2022/08/28 05:21:35;;;;;;;11.57;5.45;;;10.60;99.90;;;;;;5043798;28;20411;-65
2022/08/28 05:24:01;;;;;;;15.23;5.75;;;10.70;99.90;;;;;;5044874;28;20037;-65
2022/08/28 05:26:27;;;;;;;12.82;5.25;;;11.00;99.90;;;;;;5047760;28;20086;-66
2022/08/28 05:28:55;;;;;;;13.82;5.75;;;11.00;99.90;;;;;;5045898;28;20252;-66
2022/08/28 05:31:22;;;;;;;19.75;6.00;;;11.10;99.90;;;;;;5044671;28;20106;-66
2022/08/28 05:33:49;;;;;;;15.02;5.75;;;11.20;99.90;;;;;;5046134;28;20040;-66
2022/08/28 05:36:16;;;;;;;13.23;5.60;;;11.20;99.90;;;;;;5043418;28;20410;-66
2022/08/28 05:38:43;;;;;;;16.70;5.45;;;11.20;99.90;;;;;;5044464;28;20095;-67
2022/08/28 05:41:10;;;;;;;13.55;5.47;;;11.40;99.90;;;;;;5044439;28;20455;-66
2022/08/28 05:43:36;;;;;;;17.73;5.05;;;11.40;99.90;;;;;;5044454;28;20045;-67
2022/08/28 05:46:08;;;;;;;16.48;5.78;;;11.50;99.90;;;;;;5039489;28;20099;-67
2022/08/28 05:48:35;;;;;;;13.88;5.57;;;11.60;99.90;;;;;;5041905;28;20040;-66
2022/08/28 05:51:11;;;;;;;18.05;5.35;;;11.60;99.90;;;;;;5043110;28;20458;-67
2022/08/28 05:53:40;;;;;;;11.45;4.88;;;11.70;99.90;;;;;;5044568;28;20029;-67
2022/08/28 05:56:07;;;;;;;13.82;5.10;;;11.70;99.90;;;;;;5045768;28;20048;-67
2022/08/28 05:58:33;;;;;;;12.60;5.47;;;11.80;99.90;;;;;;5045550;28;20511;-66
2022/08/28 06:01:25;;;;;;;10.98;4.80;;;11.90;99.90;;;;;;5044852;28;20040;-66
2022/08/28 06:04:00;;;;;;;11.77;5.35;;;12.00;99.90;;;;;;5038875;28;20064;-67
2022/08/28 06:06:28;;;;;;;12.90;5.40;;;12.30;99.90;;;;;;5045731;28;20045;-67
2022/08/28 06:09:05;;;;;;;10.50;5.20;;;12.20;99.90;;;;;;5045230;28;20041;-67
2022/08/28 06:11:32;;;;;;;12.82;4.95;;;12.50;99.90;;;;;;5045117;28;20052;-66
2022/08/28 06:14:00;;;;;;;12.27;4.78;;;12.50;99.90;;;;;;5061629;28;20123;-66
2022/08/28 06:16:26;;;;;;;14.90;5.07;;;12.50;99.90;;;;;;5043482;28;20067;-67
2022/08/28 06:18:52;;;;;;;14.68;5.72;;;12.60;99.90;;;;;;5061579;28;20057;-67
2022/08/28 06:21:18;;;;;;;15.90;5.32;;;12.70;99.90;;;;;;5042230;28;20203;-66
2022/08/28 06:23:43;;;;;;;14.95;5.10;;;12.90;99.90;;;;;;5045738;28;20068;-66
2022/08/28 06:26:10;;;;;;;10.43;4.72;;;13.00;99.90;;;;;;5044487;28;20048;-66
2022/08/28 06:28:35;;;;;;;12.63;4.90;;;13.10;99.90;;;;;;5040356;28;20126;-67
2022/08/28 06:31:03;;;;;;;13.55;5.00;;;13.20;99.90;;;;;;5045325;28;20487;-66
2022/08/28 06:33:29;;;;;;;11.60;4.47;;;13.50;99.90;;;;;;5046092;28;20029;-67
2022/08/28 06:35:55;;;;;;;12.70;4.78;;;13.50;99.90;;;;;;5041543;28;20048;-66
2022/08/28 06:38:23;;;;;;;8.00;4.13;;;13.80;99.90;;;;;;5043349;28;20542;-67
2022/08/28 06:40:51;;;;;;;11.45;3.15;;;14.00;99.90;;;;;;5044808;28;20052;-67
2022/08/28 06:43:19;;;;;;;10.43;3.25;;;14.00;99.90;;;;;;5044803;28;20123;-66
2022/08/28 06:45:47;;;;;;;9.07;3.05;;;14.10;99.90;;;;;;5043644;28;20396;-67
2022/08/28 06:48:15;;;;;;;7.63;2.60;;;14.40;99.90;;;;;;5044436;28;20037;-66
2022/08/28 06:50:44;;;;;;;6.80;2.40;;;14.60;99.90;;;;;;5043689;28;20084;-67
2022/08/28 06:53:11;;;;;;;10.10;2.38;;;14.80;99.90;;;;;;5037552;28;20499;-67
2022/08/28 06:55:37;;;;;;;9.45;2.72;;;15.00;99.90;;;;;;5040772;28;20044;-68
2022/08/28 06:58:04;;;;;;;9.80;2.47;;;15.20;99.90;;;;;;5060506;28;20480;-67
2022/08/28 07:00:30;;;;;;;8.77;2.33;;;15.30;99.90;;;;;;5044082;28;20041;-66
2022/08/28 07:02:56;;;;;;;5.68;2.30;;;15.50;99.90;;;;;;5044894;28;20040;-67
2022/08/28 07:05:22;;;;;;;6.72;2.10;;;15.60;99.90;;;;;;5040628;28;20049;-65
2022/08/28 07:07:48;;;;;;;7.22;2.00;;;15.70;99.90;;;;;;5056846;28;20071;-67
2022/08/28 07:10:13;;;;;;;5.13;2.05;;;15.80;99.90;;;;;;5044097;28;20314;-68
2022/08/28 07:12:39;;;;;;;6.85;2.08;;;15.90;99.90;;;;;;5043583;28;20376;-67
2022/08/28 07:15:06;;;;;;;6.53;2.15;;;16.00;99.90;;;;;;5045157;28;20037;-67
2022/08/28 07:17:31;;;;;;;9.45;2.35;;;16.10;99.90;;;;;;5043559;28;21078;-67
2022/08/28 07:19:57;;;;;;;8.75;2.00;;;16.20;99.90;;;;;;5041854;28;20116;-66
2022/08/28 07:22:25;;;;;;;7.88;1.90;;;16.30;99.90;;;;;;5044952;28;20040;-68
2022/08/28 07:24:52;;;;;;;8.30;2.15;;;16.40;99.90;;;;;;5041038;28;20040;-68
2022/08/28 07:27:18;;;;;;;9.63;2.15;;;16.50;99.90;;;;;;5046158;28;20051;-67
2022/08/28 07:29:44;;;;;;;8.32;2.15;;;16.60;99.90;;;;;;5046140;28;20049;-67
2022/08/28 07:32:09;;;;;;;6.72;1.95;;;16.70;99.90;;;;;;5044257;28;20036;-66
2022/08/28 07:34:38;;;;;;;7.30;1.70;;;16.80;99.90;;;;;;5059615;28;20056;-67
2022/08/28 07:37:05;;;;;;;5.57;1.75;;;16.90;99.90;;;;;;5042567;28;20094;-66
2022/08/28 07:39:31;;;;;;;10.52;2.10;;;17.00;99.90;;;;;;5043671;28;20438;-67
2022/08/28 07:41:56;;;;;;;6.90;2.13;;;17.00;99.90;;;;;;5043986;28;20067;-66
2022/08/28 07:47:10;;;;;;;8.40;2.00;;;17.20;99.90;;;;;;5059075;28;20277;-69
2022/08/28 07:49:36;;;;;;;5.80;1.67;;;17.40;99.90;;;;;;5041921;28;20462;-67
2022/08/28 07:52:04;;;;;;;5.13;1.60;;;17.50;99.90;;;;;;5060327;28;20079;-68
2022/08/28 07:54:29;;;;;;;8.70;2.10;;;17.60;99.90;;;;;;5043441;28;20122;-68
2022/08/28 07:56:55;;;;;;;8.95;1.92;;;17.70;99.90;;;;;;5037913;28;20048;-67
2022/08/28 07:59:20;;;;;;;7.22;2.03;;;17.70;99.90;;;;;;5050478;28;20395;-65
2022/08/28 08:01:47;;;;;;;6.40;1.88;;;17.80;99.90;;;;;;5041897;28;20037;-65
2022/08/28 08:04:15;;;;;;;5.07;1.70;;;17.80;99.90;;;;;;5042976;28;20053;-68
2022/08/28 08:06:42;;;;;;;10.13;1.70;;;17.90;99.90;;;;;;5041862;28;20033;-68
2022/08/28 08:09:10;;;;;;;4.78;1.70;;;18.00;99.90;;;;;;5042135;28;20037;-66
2022/08/28 08:11:36;;;;;;;8.25;1.80;;;18.10;99.90;;;;;;5040726;28;20128;-67
2022/08/28 08:14:04;;;;;;;6.35;1.85;;;18.20;99.90;;;;;;5039461;28;20175;-68
2022/08/28 08:16:33;;;;;;;4.20;1.15;;;18.20;99.90;;;;;;5044127;28;20044;-67
2022/08/28 08:18:59;;;;;;;4.45;1.70;;;18.40;99.90;;;;;;5042741;28;20037;-68
2022/08/28 08:21:26;;;;;;;11.88;1.77;;;18.40;99.90;;;;;;5046684;28;20063;-66
2022/08/28 08:23:52;;;;;;;7.43;1.67;;;18.40;99.90;;;;;;5029013;28;20369;-66
2022/08/28 08:26:20;;;;;;;5.43;1.45;;;18.40;99.90;;;;;;5051868;28;20052;-68
2022/08/28 08:28:49;;;;;;;7.80;1.80;;;18.50;99.90;;;;;;5050981;28;20029;-66
2022/08/28 08:31:16;;;;;;;7.47;1.90;;;18.70;99.90;;;;;;5044042;28;20052;-66
2022/08/28 08:33:44;;;;;;;4.40;1.20;;;18.60;99.90;;;;;;5049478;28;20063;-67
2022/08/28 08:36:11;;;;;;;2.78;1.20;;;18.60;99.90;;;;;;5046376;28;20045;-67
2022/08/28 08:38:38;;;;;;;5.25;1.70;;;18.70;99.90;;;;;;5045358;28;20045;-65
2022/08/28 08:41:22;;;;;;;4.20;1.42;;;18.80;99.90;;;;;;5046815;28;20028;-66
2022/08/28 08:43:51;;;;;;;6.82;1.20;;;18.80;99.90;;;;;;5050865;28;20045;-67
2022/08/28 08:46:19;;;;;;;3.67;1.70;;;18.90;99.90;;;;;;5058058;28;20033;-67
2022/08/28 08:48:45;;;;;;;5.07;1.38;;;19.00;99.90;;;;;;5050759;28;20519;-68
2022/08/28 08:51:30;;;;;;;4.07;1.30;;;19.10;99.90;;;;;;5052832;28;20048;-68
2022/08/28 08:54:07;;;;;;;6.10;1.60;;;19.20;99.90;;;;;;5049784;28;20059;-67
2022/08/28 08:56:33;;;;;;;5.15;1.63;;;19.30;99.90;;;;;;5051634;28;20468;-67
2022/08/28 08:59:01;;;;;;;6.85;1.88;;;19.30;99.90;;;;;;5052126;28;20360;-66
2022/08/28 09:01:35;;;;;;;8.55;1.52;;;19.40;99.90;;;;;;5049144;28;20099;-67
2022/08/28 09:04:25;;;;;;;6.78;1.60;;;19.30;99.90;;;;;;5045032;28;20040;-68
2022/08/28 09:07:21;;;;;;;7.25;1.67;;;19.30;99.90;;;;;;5050198;28;20148;-67
2022/08/28 09:09:53;;;;;;;5.70;1.67;;;19.30;99.90;;;;;;5046224;28;20395;-67
2022/08/28 09:12:24;;;;;;;;;;;19.30;99.90;;;;;;5047695;28;20041;-66
2022/08/28 09:14:57;;;;;;;7.85;1.45;;;19.50;99.90;;;;;;5040593;28;19923;-68
2022/08/28 09:17:29;;;;;;;4.65;1.50;;;19.60;99.90;;;;;;5045821;28;20384;-67
2022/08/28 09:19:55;;;;;;;5.85;1.58;;;19.80;99.90;;;;;;5047314;28;20087;-67
2022/08/28 09:22:21;;;;;;;6.38;1.98;;;19.80;99.90;;;;;;5043930;28;20411;-67
2022/08/28 09:24:47;;;;;;;5.03;1.60;;;19.80;99.90;;;;;;5038602;28;20050;-67
2022/08/28 09:27:31;;;;;;;5.13;1.55;;;19.60;99.90;;;;;;5044825;28;20063;-66
2022/08/28 09:30:04;;;;;;;5.85;1.60;;;19.50;99.90;;;;;;5061692;28;20072;-67
2022/08/28 09:32:32;;;;;;;4.47;1.95;;;19.40;99.90;;;;;;5043082;28;20071;-67
2022/08/28 09:35:15;;;;;;;5.30;1.58;;;19.60;99.90;;;;;;5045089;28;20064;-67
2022/08/28 09:37:41;;;;;;;;;;;19.70;99.90;;;;;;5056843;28;20063;-67
2022/08/28 09:40:13;;;;;;;9.25;1.65;;;19.70;99.90;;;;;;5042124;28;20413;-66
2022/08/28 09:45:25;;;;;;;4.97;1.52;;;19.70;99.90;;;;;;5044961;28;20542;-66
2022/08/28 09:47:54;;;;;;;10.48;1.20;;;19.90;99.90;;;;;;5048309;28;20063;-68
2022/08/28 09:50:36;;;;;;;8.02;1.73;;;20.10;99.90;;;;;;5050253;28;20037;-67
2022/08/28 09:53:08;;;;;;;4.15;1.70;;;20.10;99.90;;;;;;5050676;28;20498;-68
2022/08/28 09:55:48;;;;;;;4.50;1.48;;;20.10;99.90;;;;;;5049831;28;20049;-65
2022/08/28 09:58:14;;;;;;;3.03;1.52;;;20.00;99.90;;;;;;5049169;28;20041;-66
2022/08/28 10:00:48;;;;;;;5.70;1.45;;;19.80;99.90;;;;;;5049123;28;20090;-67
2022/08/28 10:03:20;;;;;;;4.00;1.55;;;19.50;99.90;;;;;;5049060;28;20044;-67
2022/08/28 10:06:01;;;;;;;6.15;2.00;;;19.50;99.90;;;;;;5049447;28;20056;-67
2022/08/28 10:08:43;;;;;;;7.45;1.90;;;19.60;99.90;;;;;;5047509;28;20047;-66
2022/08/28 10:11:34;;;;;;;7.95;1.70;;;19.80;99.90;;;;;;5049197;28;20048;-68
2022/08/28 10:14:08;;;;;;;4.20;1.40;;;20.00;99.90;;;;;;5049943;28;20492;-67
2022/08/28 10:16:45;;;;;;;6.75;2.20;;;20.20;99.90;;;;;;5050872;28;20040;-67
2022/08/28 10:19:28;;;;;;;5.82;2.03;;;20.30;99.90;;;;;;5047250;28;20439;-67
2022/08/28 10:21:58;;;;;;;4.28;1.35;;;20.40;99.90;;;;;;5048438;28;20040;-66
2022/08/28 10:24:38;;;;;;;4.32;1.52;;;20.20;99.90;;;;;;5043805;28;20041;-66
2022/08/28 10:27:26;;;;;;;5.05;1.90;;;19.90;99.90;;;;;;5032945;28;20041;-66
2022/08/28 10:30:03;;;;;;;5.25;1.70;;;19.60;99.90;;;;;;5043512;28;20479;-66
2022/08/28 10:32:41;;;;;;;4.93;1.70;;;19.50;99.90;;;;;;5042968;28;20049;-66
2022/08/28 10:35:20;;;;;;;2.38;1.15;;;19.30;99.90;;;;;;5046390;28;20045;-66
2022/08/28 10:38:04;;;;;;;4.80;1.48;;;19.30;99.90;;;;;;5042120;28;20064;-65
2022/08/28 10:40:40;;;;;;;4.53;1.70;;;19.30;99.90;;;;;;5045333;28;20123;-64
2022/08/28 10:43:16;;;;;;;7.55;2.08;;;19.20;99.90;;;;;;5043188;28;20613;-68
2022/08/28 10:45:42;;;;;;;6.88;1.60;;;19.00;99.90;;;;;;5046029;28;20200;-68
2022/08/28 10:48:23;;;;;;;8.98;1.73;;;19.00;99.90;;;;;;5047163;28;20112;-66
2022/08/28 10:51:06;;;;;;;5.18;1.70;;;19.20;99.90;;;;;;5043221;28;20750;-66
2022/08/28 10:53:40;;;;;;;3.83;1.45;;;19.40;99.90;;;;;;5056588;28;20038;-67
2022/08/28 10:56:18;;;;;;;4.18;1.40;;;19.80;99.90;;;;;;5044041;28;20127;-67
2022/08/28 10:58:46;;;;;;;3.25;1.98;;;20.00;99.90;;;;;;5053391;28;20064;-66
2022/08/28 11:01:23;;;;;;;8.00;1.58;;;19.80;99.90;;;;;;5044282;28;20041;-65
2022/08/28 11:03:50;;;;;;;7.20;1.90;;;19.70;99.90;;;;;;5041840;28;20041;-66
2022/08/28 11:06:25;;;;;;;5.32;1.88;;;19.50;99.90;;;;;;5047271;28;20569;-66
2022/08/28 11:08:54;;;;;;;5.50;1.80;;;19.50;99.90;;;;;;5045641;28;20077;-66
2022/08/28 11:11:42;;;;;;;3.22;1.63;;;19.60;99.90;;;;;;5044996;28;20033;-66
2022/08/28 11:14:09;;;;;;;5.60;1.67;;;19.90;99.90;;;;;;5036026;28;20041;-67
2022/08/28 11:16:39;;;;;;;4.32;1.90;;;20.30;99.90;;;;;;5047233;28;20099;-66
2022/08/28 11:19:32;;;;;;;6.75;1.77;;;20.50;99.90;;;;;;5042024;28;20136;-66
2022/08/28 11:22:08;;;;;;;6.25;1.60;;;20.40;99.90;;;;;;5046230;28;20052;-66
2022/08/28 11:24:46;;;;;;;6.10;1.90;;;20.30;99.90;;;;;;5046862;28;20317;-67
2022/08/28 11:27:22;;;;;;;4.90;1.65;;;20.10;99.90;;;;;;5044816;28;20033;-67
2022/08/28 11:30:03;;;;;;;7.15;1.45;;;19.90;99.90;;;;;;5048560;28;20048;-68
2022/08/28 11:32:34;;;;;;;5.82;1.85;;;19.70;99.90;;;;;;5048309;28;20033;-66
2022/08/28 11:35:00;;;;;;;4.28;1.98;;;19.60;99.90;;;;;;5049532;28;20539;-66
2022/08/28 11:37:44;;;;;;;4.55;1.77;;;19.60;99.90;;;;;;5045549;28;20048;-66
2022/08/28 11:40:39;;;;;;;7.32;1.70;;;19.80;99.90;;;;;;5049224;28;20045;-66
2022/08/28 11:43:14;;;;;;;5.80;1.67;;;20.10;99.90;;;;;;5046211;28;20496;-66
2022/08/28 11:45:45;;;;;;;5.88;2.00;;;20.20;99.90;;;;;;5048545;28;20037;-67
2022/08/28 11:48:36;;;;;;;5.40;1.52;;;20.10;99.90;;;;;;5047684;28;20086;-67
2022/08/28 11:51:17;;;;;;;4.80;1.67;;;19.90;99.90;;;;;;5046499;28;20672;-67
2022/08/28 11:53:50;;;;;;;8.00;1.95;;;19.70;99.90;;;;;;5050824;28;20479;-66
2022/08/28 11:56:27;;;;;;;5.68;1.77;;;19.60;99.90;;;;;;5047651;28;20052;-67
2022/08/28 11:58:56;;;;;;;5.22;1.63;;;19.60;99.90;;;;;;5042253;28;20100;-66
2022/08/28 12:01:31;;;;;;;5.53;1.75;;;19.70;99.90;;;;;;5043103;28;20799;-68
2022/08/28 12:03:59;;;;;;;7.65;1.83;;;20.00;99.90;;;;;;5042821;28;20098;-67
2022/08/28 12:07:10;;;;;;;3.67;1.20;;;20.20;99.90;;;;;;5042997;28;20052;-66
2022/08/28 12:09:36;;;;;;;3.75;1.50;;;20.50;99.90;;;;;;5010493;28;20049;-66
2022/08/28 12:12:32;;;;;;;5.18;1.58;;;20.70;99.90;;;;;;5044674;28;20041;-65
2022/08/28 12:15:03;;;;;;;8.00;2.15;;;21.00;99.90;;;;;;5043071;28;20132;-68
2022/08/28 12:17:45;;;;;;;4.60;1.90;;;21.00;99.90;;;;;;5048485;28;20083;-68
2022/08/28 12:20:46;;;;;;;4.28;1.60;;;20.90;99.90;;;;;;5048672;28;20045;-66
2022/08/28 12:23:38;;;;;;;7.32;1.75;;;20.80;99.80;;;;;;5044663;28;20396;-68
2022/08/28 12:26:22;;;;;;;6.00;1.80;;;20.80;99.90;;;;;;5057341;28;20195;-67
2022/08/28 12:28:54;;;;;;;6.30;1.65;;;21.00;99.90;;;;;;5042241;28;20500;-66
2022/08/28 12:32:11;;;;;;;6.13;1.30;;;21.20;99.90;;;;;;5044030;28;20033;-66
2022/08/28 12:34:44;;;;;;;4.35;1.33;;;21.20;99.90;;;;;;5024800;28;20144;-67
2022/08/28 12:37:26;;;;;;;3.65;1.48;;;20.80;99.90;;;;;;5037147;28;20102;-66
2022/08/28 12:39:53;;;;;;;6.63;1.73;;;20.40;99.90;;;;;;5047551;28;20084;-66
2022/08/28 12:42:23;;;;;;;4.10;1.30;;;20.20;99.90;;;;;;5044156;28;20279;-66
2022/08/28 12:44:48;;;;;;;6.05;1.85;;;20.40;99.90;;;;;;5044860;28;20151;-66
2022/08/28 12:47:17;;;;;;;8.13;2.10;;;20.50;99.60;;;;;;5044628;28;20479;-67
2022/08/28 12:49:43;;;;;;;5.18;1.83;;;20.40;99.90;;;;;;5046886;28;20033;-65
2022/08/28 12:52:16;;;;;;;6.63;1.90;;;20.50;99.90;;;;;;5047770;28;20048;-67
2022/08/28 12:54:44;;;;;;;6.43;1.60;;;20.70;99.90;;;;;;5048892;28;20123;-68
2022/08/28 12:57:21;;;;;;;5.40;1.70;;;20.60;99.90;;;;;;5048315;28;20049;-67
2022/08/28 12:59:50;;;;;;;5.75;2.03;;;20.50;99.90;;;;;;5048490;28;20450;-67
2022/08/28 13:02:26;;;;;;;9.23;2.05;;;20.40;99.90;;;;;;5046591;28;20506;-68
2022/08/28 13:05:05;;;;;;;7.18;1.90;;;20.40;99.90;;;;;;5045190;28;20243;-66
2022/08/28 13:07:36;;;;;;;6.45;1.52;;;20.50;99.90;;;;;;5049927;28;20037;-68